Bairoil, Wyoming
Current Conditions -  °F | °C
As of 4:53 PM on Sunday 25 Jan 2015 (Local Time) from KRWL Reporting Station
Clear Clear  
Wind Chill: 31°   Ceiling: Unl
Heat Index: 40°   Visibility: 10mi
Dew Point: 28°   Wind: 16mph
Humidity: 63%   Direction: 250°WSW
Pressure: 30.26"   Gusts: NA
Location:  42.24°N, 107.56°W
Report Text: KRWL 252353Z AUTO 25014KT 10SM CLR 04/M02 A3026 RMK AO2 SLP244 T00441022 10056 20028 50015
Loading
Personal Weather Stations






























Interactive Weather Map New forecast layout! Learn more

10-Day Weather Forecast

Advertisements
Track Severe Weather on mobile